sensor_id;sensor_type;location;lat;lon;timestamp;P1;durP1;ratioP1;P2;durP2;ratioP2
32523;SDS011;18965;52.242;20.886;2023-04-29T00:01:07;33.20;;;12.55;;
32523;SDS011;18965;52.242;20.886;2023-04-29T00:03:34;40.53;;;13.00;;
32523;SDS011;18965;52.242;20.886;2023-04-29T00:06:00;25.65;;;12.02;;
32523;SDS011;18965;52.242;20.886;2023-04-29T00:08:26;27.67;;;11.25;;
32523;SDS011;18965;52.242;20.886;2023-04-29T00:10:52;25.58;;;10.82;;
32523;SDS011;18965;52.242;20.886;2023-04-29T00:13:18;28.90;;;11.60;;
32523;SDS011;18965;52.242;20.886;2023-04-29T00:15:43;39.40;;;13.20;;
32523;SDS011;18965;52.242;20.886;2023-04-29T00:18:09;35.72;;;12.35;;
32523;SDS011;18965;52.242;20.886;2023-04-29T00:20:35;24.92;;;12.18;;
32523;SDS011;18965;52.242;20.886;2023-04-29T00:23:02;32.55;;;12.25;;
32523;SDS011;18965;52.242;20.886;2023-04-29T00:25:28;30.45;;;11.85;;
32523;SDS011;18965;52.242;20.886;2023-04-29T00:27:54;45.55;;;13.30;;
32523;SDS011;18965;52.242;20.886;2023-04-29T00:30:20;34.95;;;12.75;;
32523;SDS011;18965;52.242;20.886;2023-04-29T00:32:46;25.85;;;11.13;;
32523;SDS011;18965;52.242;20.886;2023-04-29T00:35:11;46.17;;;13.30;;
32523;SDS011;18965;52.242;20.886;2023-04-29T00:37:37;42.47;;;13.60;;
32523;SDS011;18965;52.242;20.886;2023-04-29T00:40:03;51.72;;;14.00;;
32523;SDS011;18965;52.242;20.886;2023-04-29T00:42:30;33.45;;;12.65;;
32523;SDS011;18965;52.242;20.886;2023-04-29T00:44:57;28.70;;;12.10;;
32523;SDS011;18965;52.242;20.886;2023-04-29T00:47:23;35.17;;;13.45;;
32523;SDS011;18965;52.242;20.886;2023-04-29T00:49:50;32.70;;;12.13;;
32523;SDS011;18965;52.242;20.886;2023-04-29T00:52:15;25.70;;;12.15;;
32523;SDS011;18965;52.242;20.886;2023-04-29T00:54:42;45.60;;;13.98;;
32523;SDS011;18965;52.242;20.886;2023-04-29T00:57:08;35.88;;;12.38;;
32523;SDS011;18965;52.242;20.886;2023-04-29T00:59:34;25.15;;;12.10;;
32523;SDS011;18965;52.242;20.886;2023-04-29T01:02:03;25.42;;;11.57;;
32523;SDS011;18965;52.242;20.886;2023-04-29T01:04:29;29.20;;;12.18;;
32523;SDS011;18965;52.242;20.886;2023-04-29T01:15:09;34.10;;;11.95;;
32523;SDS011;18965;52.242;20.886;2023-04-29T01:17:49;24.52;;;10.48;;
32523;SDS011;18965;52.242;20.886;2023-04-29T01:20:24;33.03;;;11.35;;
32523;SDS011;18965;52.242;20.886;2023-04-29T01:22:51;29.50;;;12.50;;
32523;SDS011;18965;52.242;20.886;2023-04-29T01:25:17;27.10;;;11.23;;
32523;SDS011;18965;52.242;20.886;2023-04-29T01:33:28;21.70;;;11.10;;
32523;SDS011;18965;52.242;20.886;2023-04-29T01:36:12;22.95;;;11.30;;
32523;SDS011;18965;52.242;20.886;2023-04-29T01:39:06;22.52;;;10.88;;
32523;SDS011;18965;52.242;20.886;2023-04-29T01:42:04;27.00;;;11.43;;
32523;SDS011;18965;52.242;20.886;2023-04-29T01:44:39;26.45;;;11.05;;
32523;SDS011;18965;52.242;20.886;2023-04-29T01:47:06;22.08;;;11.07;;
32523;SDS011;18965;52.242;20.886;2023-04-29T01:49:37;25.45;;;10.93;;
32523;SDS011;18965;52.242;20.886;2023-04-29T01:52:03;27.40;;;11.38;;
32523;SDS011;18965;52.242;20.886;2023-04-29T01:54:31;23.58;;;11.23;;
32523;SDS011;18965;52.242;20.886;2023-04-29T01:57:00;53.57;;;14.57;;
32523;SDS011;18965;52.242;20.886;2023-04-29T01:59:26;23.25;;;12.07;;
32523;SDS011;18965;52.242;20.886;2023-04-29T02:01:52;27.17;;;11.95;;
32523;SDS011;18965;52.242;20.886;2023-04-29T02:04:18;34.88;;;12.85;;
32523;SDS011;18965;52.242;20.886;2023-04-29T02:06:43;25.25;;;11.43;;
32523;SDS011;18965;52.242;20.886;2023-04-29T02:09:09;42.25;;;13.50;;
32523;SDS011;18965;52.242;20.886;2023-04-29T02:11:35;27.77;;;11.57;;
32523;SDS011;18965;52.242;20.886;2023-04-29T02:14:00;28.08;;;11.52;;
32523;SDS011;18965;52.242;20.886;2023-04-29T02:16:26;25.75;;;10.60;;
32523;SDS011;18965;52.242;20.886;2023-04-29T02:18:52;28.90;;;11.18;;
32523;SDS011;18965;52.242;20.886;2023-04-29T02:21:17;20.55;;;9.90;;
32523;SDS011;18965;52.242;20.886;2023-04-29T02:23:43;22.33;;;9.25;;
32523;SDS011;18965;52.242;20.886;2023-04-29T02:26:09;21.48;;;10.32;;
32523;SDS011;18965;52.242;20.886;2023-04-29T02:28:35;47.88;;;12.32;;
32523;SDS011;18965;52.242;20.886;2023-04-29T02:31:01;35.63;;;11.93;;
32523;SDS011;18965;52.242;20.886;2023-04-29T02:33:27;26.85;;;10.32;;
32523;SDS011;18965;52.242;20.886;2023-04-29T02:35:52;31.55;;;11.07;;
32523;SDS011;18965;52.242;20.886;2023-04-29T02:38:18;39.15;;;11.52;;
32523;SDS011;18965;52.242;20.886;2023-04-29T02:40:45;44.25;;;12.95;;
32523;SDS011;18965;52.242;20.886;2023-04-29T02:43:11;21.27;;;10.13;;
32523;SDS011;18965;52.242;20.886;2023-04-29T02:45:37;20.95;;;9.80;;
32523;SDS011;18965;52.242;20.886;2023-04-29T02:48:04;21.42;;;9.70;;
32523;SDS011;18965;52.242;20.886;2023-04-29T02:50:30;23.98;;;9.65;;
32523;SDS011;18965;52.242;20.886;2023-04-29T02:52:56;35.75;;;10.75;;
32523;SDS011;18965;52.242;20.886;2023-04-29T02:55:22;21.10;;;9.88;;
32523;SDS011;18965;52.242;20.886;2023-04-29T02:57:48;26.90;;;10.07;;
32523;SDS011;18965;52.242;20.886;2023-04-29T03:00:14;25.45;;;10.10;;
32523;SDS011;18965;52.242;20.886;2023-04-29T03:02:40;20.30;;;8.70;;
32523;SDS011;18965;52.242;20.886;2023-04-29T03:05:06;29.15;;;9.90;;
32523;SDS011;18965;52.242;20.886;2023-04-29T03:07:31;24.38;;;9.63;;
32523;SDS011;18965;52.242;20.886;2023-04-29T03:09:57;20.00;;;9.15;;
32523;SDS011;18965;52.242;20.886;2023-04-29T03:12:23;17.13;;;9.07;;
32523;SDS011;18965;52.242;20.886;2023-04-29T03:14:49;24.45;;;9.60;;
32523;SDS011;18965;52.242;20.886;2023-04-29T03:17:16;34.22;;;10.38;;
32523;SDS011;18965;52.242;20.886;2023-04-29T03:19:41;21.80;;;9.40;;
32523;SDS011;18965;52.242;20.886;2023-04-29T03:22:07;21.77;;;9.43;;
32523;SDS011;18965;52.242;20.886;2023-04-29T03:24:35;26.50;;;9.88;;
32523;SDS011;18965;52.242;20.886;2023-04-29T03:27:01;25.70;;;9.82;;
32523;SDS011;18965;52.242;20.886;2023-04-29T03:29:28;26.33;;;9.38;;
32523;SDS011;18965;52.242;20.886;2023-04-29T03:31:54;22.33;;;8.77;;
32523;SDS011;18965;52.242;20.886;2023-04-29T03:34:21;23.50;;;9.43;;
32523;SDS011;18965;52.242;20.886;2023-04-29T03:36:47;48.67;;;11.32;;
32523;SDS011;18965;52.242;20.886;2023-04-29T03:39:12;25.95;;;9.27;;
32523;SDS011;18965;52.242;20.886;2023-04-29T03:41:38;24.48;;;8.88;;
32523;SDS011;18965;52.242;20.886;2023-04-29T03:44:04;26.05;;;9.15;;
32523;SDS011;18965;52.242;20.886;2023-04-29T03:46:30;29.88;;;10.15;;
32523;SDS011;18965;52.242;20.886;2023-04-29T03:48:56;19.98;;;8.65;;
32523;SDS011;18965;52.242;20.886;2023-04-29T03:51:22;22.08;;;9.30;;
32523;SDS011;18965;52.242;20.886;2023-04-29T03:53:48;17.63;;;8.77;;
32523;SDS011;18965;52.242;20.886;2023-04-29T03:56:15;15.73;;;8.10;;
32523;SDS011;18965;52.242;20.886;2023-04-29T03:58:41;29.33;;;9.43;;
32523;SDS011;18965;52.242;20.886;2023-04-29T04:01:07;29.80;;;9.98;;
32523;SDS011;18965;52.242;20.886;2023-04-29T04:03:32;24.73;;;8.98;;
32523;SDS011;18965;52.242;20.886;2023-04-29T04:05:58;25.50;;;9.15;;
32523;SDS011;18965;52.242;20.886;2023-04-29T04:08:24;17.63;;;8.70;;
32523;SDS011;18965;52.242;20.886;2023-04-29T04:10:49;40.17;;;10.70;;
32523;SDS011;18965;52.242;20.886;2023-04-29T04:13:15;30.95;;;10.18;;
32523;SDS011;18965;52.242;20.886;2023-04-29T04:15:41;20.73;;;9.07;;
32523;SDS011;18965;52.242;20.886;2023-04-29T04:18:07;36.72;;;9.95;;
32523;SDS011;18965;52.242;20.886;2023-04-29T04:20:35;24.42;;;9.60;;
32523;SDS011;18965;52.242;20.886;2023-04-29T04:23:01;33.83;;;9.98;;
32523;SDS011;18965;52.242;20.886;2023-04-29T04:25:27;34.72;;;9.82;;
32523;SDS011;18965;52.242;20.886;2023-04-29T04:27:54;21.50;;;8.95;;
32523;SDS011;18965;52.242;20.886;2023-04-29T04:30:19;32.45;;;9.85;;
32523;SDS011;18965;52.242;20.886;2023-04-29T04:32:45;30.27;;;9.88;;
32523;SDS011;18965;52.242;20.886;2023-04-29T04:35:11;45.33;;;10.80;;
32523;SDS011;18965;52.242;20.886;2023-04-29T04:37:37;25.65;;;9.18;;
32523;SDS011;18965;52.242;20.886;2023-04-29T04:40:04;31.73;;;9.15;;
32523;SDS011;18965;52.242;20.886;2023-04-29T04:42:30;44.17;;;10.38;;
32523;SDS011;18965;52.242;20.886;2023-04-29T04:44:56;47.40;;;10.23;;
32523;SDS011;18965;52.242;20.886;2023-04-29T04:47:21;22.23;;;8.15;;
32523;SDS011;18965;52.242;20.886;2023-04-29T04:49:47;32.40;;;8.88;;
32523;SDS011;18965;52.242;20.886;2023-04-29T04:52:18;35.38;;;9.07;;
32523;SDS011;18965;52.242;20.886;2023-04-29T04:54:45;50.40;;;10.18;;
32523;SDS011;18965;52.242;20.886;2023-04-29T04:57:11;156.13;;;21.75;;
32523;SDS011;18965;52.242;20.886;2023-04-29T04:59:37;26.70;;;7.95;;
32523;SDS011;18965;52.242;20.886;2023-04-29T05:02:03;30.77;;;8.23;;
32523;SDS011;18965;52.242;20.886;2023-04-29T05:04:28;23.52;;;8.05;;
32523;SDS011;18965;52.242;20.886;2023-04-29T05:06:54;33.80;;;8.57;;
32523;SDS011;18965;52.242;20.886;2023-04-29T05:09:20;20.10;;;7.55;;
32523;SDS011;18965;52.242;20.886;2023-04-29T05:11:46;28.85;;;7.78;;
32523;SDS011;18965;52.242;20.886;2023-04-29T05:14:12;26.33;;;8.15;;
32523;SDS011;18965;52.242;20.886;2023-04-29T05:16:37;23.33;;;7.60;;
32523;SDS011;18965;52.242;20.886;2023-04-29T05:19:03;32.97;;;9.10;;
32523;SDS011;18965;52.242;20.886;2023-04-29T05:21:29;34.35;;;8.65;;
32523;SDS011;18965;52.242;20.886;2023-04-29T05:23:55;30.85;;;7.70;;
32523;SDS011;18965;52.242;20.886;2023-04-29T05:26:21;47.38;;;9.98;;
32523;SDS011;18965;52.242;20.886;2023-04-29T05:28:47;23.92;;;7.90;;
32523;SDS011;18965;52.242;20.886;2023-04-29T05:31:13;34.20;;;8.23;;
32523;SDS011;18965;52.242;20.886;2023-04-29T05:33:39;52.53;;;10.77;;
32523;SDS011;18965;52.242;20.886;2023-04-29T05:36:05;20.40;;;7.07;;
32523;SDS011;18965;52.242;20.886;2023-04-29T05:38:31;21.95;;;7.20;;
32523;SDS011;18965;52.242;20.886;2023-04-29T05:40:57;38.67;;;9.05;;
32523;SDS011;18965;52.242;20.886;2023-04-29T05:43:23;21.45;;;7.68;;
32523;SDS011;18965;52.242;20.886;2023-04-29T05:45:49;27.30;;;7.65;;
32523;SDS011;18965;52.242;20.886;2023-04-29T05:48:14;16.67;;;7.30;;
32523;SDS011;18965;52.242;20.886;2023-04-29T05:50:40;24.95;;;7.57;;
32523;SDS011;18965;52.242;20.886;2023-04-29T05:53:06;15.80;;;6.57;;
32523;SDS011;18965;52.242;20.886;2023-04-29T05:55:32;36.17;;;9.20;;
32523;SDS011;18965;52.242;20.886;2023-04-29T05:57:59;30.85;;;8.73;;
32523;SDS011;18965;52.242;20.886;2023-04-29T06:00:25;17.33;;;7.20;;
32523;SDS011;18965;52.242;20.886;2023-04-29T06:02:50;16.23;;;6.60;;
32523;SDS011;18965;52.242;20.886;2023-04-29T06:05:16;27.17;;;8.48;;
32523;SDS011;18965;52.242;20.886;2023-04-29T06:07:42;17.55;;;6.80;;
32523;SDS011;18965;52.242;20.886;2023-04-29T06:10:09;29.13;;;8.18;;
32523;SDS011;18965;52.242;20.886;2023-04-29T06:12:34;32.55;;;8.52;;
32523;SDS011;18965;52.242;20.886;2023-04-29T06:15:00;30.85;;;8.25;;
32523;SDS011;18965;52.242;20.886;2023-04-29T06:17:26;30.17;;;8.45;;
32523;SDS011;18965;52.242;20.886;2023-04-29T06:19:53;16.27;;;6.43;;
32523;SDS011;18965;52.242;20.886;2023-04-29T06:22:20;17.17;;;6.72;;
32523;SDS011;18965;52.242;20.886;2023-04-29T06:24:46;25.67;;;7.60;;
32523;SDS011;18965;52.242;20.886;2023-04-29T06:27:14;21.05;;;7.22;;
32523;SDS011;18965;52.242;20.886;2023-04-29T06:29:40;32.45;;;7.97;;
32523;SDS011;18965;52.242;20.886;2023-04-29T06:32:06;16.23;;;6.07;;
32523;SDS011;18965;52.242;20.886;2023-04-29T06:34:32;25.85;;;7.28;;
32523;SDS011;18965;52.242;20.886;2023-04-29T06:36:58;16.73;;;6.30;;
32523;SDS011;18965;52.242;20.886;2023-04-29T06:39:23;16.85;;;6.38;;
32523;SDS011;18965;52.242;20.886;2023-04-29T06:41:49;15.32;;;5.80;;
32523;SDS011;18965;52.242;20.886;2023-04-29T06:44:16;29.20;;;7.72;;
32523;SDS011;18965;52.242;20.886;2023-04-29T06:46:42;21.45;;;6.75;;
32523;SDS011;18965;52.242;20.886;2023-04-29T06:49:08;25.80;;;6.95;;
32523;SDS011;18965;52.242;20.886;2023-04-29T06:51:35;19.77;;;6.32;;
32523;SDS011;18965;52.242;20.886;2023-04-29T06:54:02;23.55;;;7.13;;
32523;SDS011;18965;52.242;20.886;2023-04-29T06:56:28;26.75;;;7.78;;
32523;SDS011;18965;52.242;20.886;2023-04-29T06:58:53;26.60;;;7.25;;
32523;SDS011;18965;52.242;20.886;2023-04-29T07:01:19;16.90;;;5.82;;
32523;SDS011;18965;52.242;20.886;2023-04-29T07:03:45;22.02;;;6.47;;
32523;SDS011;18965;52.242;20.886;2023-04-29T07:06:11;26.05;;;6.90;;
32523;SDS011;18965;52.242;20.886;2023-04-29T07:08:37;30.48;;;7.32;;
32523;SDS011;18965;52.242;20.886;2023-04-29T07:11:03;13.90;;;5.28;;
32523;SDS011;18965;52.242;20.886;2023-04-29T07:13:29;15.80;;;6.07;;
32523;SDS011;18965;52.242;20.886;2023-04-29T07:15:55;17.48;;;5.63;;
32523;SDS011;18965;52.242;20.886;2023-04-29T07:18:21;14.75;;;5.30;;
32523;SDS011;18965;52.242;20.886;2023-04-29T07:20:47;28.65;;;7.00;;
32523;SDS011;18965;52.242;20.886;2023-04-29T07:23:15;25.25;;;6.82;;
32523;SDS011;18965;52.242;20.886;2023-04-29T07:25:40;17.58;;;5.88;;
32523;SDS011;18965;52.242;20.886;2023-04-29T07:28:06;32.72;;;7.40;;
32523;SDS011;18965;52.242;20.886;2023-04-29T07:30:35;13.73;;;4.95;;
32523;SDS011;18965;52.242;20.886;2023-04-29T07:33:01;13.82;;;4.95;;
32523;SDS011;18965;52.242;20.886;2023-04-29T07:35:28;16.58;;;5.88;;
32523;SDS011;18965;52.242;20.886;2023-04-29T07:37:54;11.55;;;4.93;;
32523;SDS011;18965;52.242;20.886;2023-04-29T07:40:20;25.20;;;6.65;;
32523;SDS011;18965;52.242;20.886;2023-04-29T07:42:46;22.05;;;5.90;;
32523;SDS011;18965;52.242;20.886;2023-04-29T07:45:12;50.40;;;9.82;;
32523;SDS011;18965;52.242;20.886;2023-04-29T07:47:39;13.52;;;5.25;;
32523;SDS011;18965;52.242;20.886;2023-04-29T07:50:05;19.63;;;6.13;;
32523;SDS011;18965;52.242;20.886;2023-04-29T07:52:31;24.15;;;6.50;;
32523;SDS011;18965;52.242;20.886;2023-04-29T07:54:56;25.83;;;6.50;;
32523;SDS011;18965;52.242;20.886;2023-04-29T07:57:22;12.68;;;5.05;;
32523;SDS011;18965;52.242;20.886;2023-04-29T07:59:52;14.27;;;5.28;;
32523;SDS011;18965;52.242;20.886;2023-04-29T08:02:18;18.67;;;5.55;;
32523;SDS011;18965;52.242;20.886;2023-04-29T08:04:44;16.95;;;5.50;;
32523;SDS011;18965;52.242;20.886;2023-04-29T08:07:10;17.23;;;5.00;;
32523;SDS011;18965;52.242;20.886;2023-04-29T08:09:37;19.45;;;5.30;;
32523;SDS011;18965;52.242;20.886;2023-04-29T08:12:02;22.67;;;5.57;;
32523;SDS011;18965;52.242;20.886;2023-04-29T08:14:29;19.55;;;5.05;;
32523;SDS011;18965;52.242;20.886;2023-04-29T08:16:55;19.88;;;5.63;;
32523;SDS011;18965;52.242;20.886;2023-04-29T08:19:21;31.20;;;6.85;;
32523;SDS011;18965;52.242;20.886;2023-04-29T08:21:46;20.80;;;5.75;;
32523;SDS011;18965;52.242;20.886;2023-04-29T08:24:12;20.45;;;5.75;;
32523;SDS011;18965;52.242;20.886;2023-04-29T08:26:38;9.18;;;4.40;;
32523;SDS011;18965;52.242;20.886;2023-04-29T08:29:05;12.30;;;5.00;;
32523;SDS011;18965;52.242;20.886;2023-04-29T08:31:31;21.45;;;5.03;;
32523;SDS011;18965;52.242;20.886;2023-04-29T08:33:57;10.82;;;4.32;;
32523;SDS011;18965;52.242;20.886;2023-04-29T08:36:23;9.52;;;4.03;;
32523;SDS011;18965;52.242;20.886;2023-04-29T08:38:52;26.67;;;5.70;;
32523;SDS011;18965;52.242;20.886;2023-04-29T08:41:18;15.52;;;4.43;;
32523;SDS011;18965;52.242;20.886;2023-04-29T08:43:44;14.82;;;4.72;;
32523;SDS011;18965;52.242;20.886;2023-04-29T08:46:10;9.45;;;4.10;;
32523;SDS011;18965;52.242;20.886;2023-04-29T08:48:36;20.92;;;5.45;;
32523;SDS011;18965;52.242;20.886;2023-04-29T08:51:04;16.33;;;4.85;;
32523;SDS011;18965;52.242;20.886;2023-04-29T08:53:30;27.45;;;5.97;;
32523;SDS011;18965;52.242;20.886;2023-04-29T08:55:57;18.48;;;4.93;;
32523;SDS011;18965;52.242;20.886;2023-04-29T08:58:33;17.65;;;4.60;;
32523;SDS011;18965;52.242;20.886;2023-04-29T09:01:00;19.05;;;5.90;;
32523;SDS011;18965;52.242;20.886;2023-04-29T09:03:30;18.35;;;5.35;;
32523;SDS011;18965;52.242;20.886;2023-04-29T09:06:05;17.58;;;4.55;;
32523;SDS011;18965;52.242;20.886;2023-04-29T09:08:31;16.92;;;4.72;;
32523;SDS011;18965;52.242;20.886;2023-04-29T09:10:57;34.10;;;7.28;;
32523;SDS011;18965;52.242;20.886;2023-04-29T09:13:25;16.75;;;4.80;;
32523;SDS011;18965;52.242;20.886;2023-04-29T09:15:52;15.90;;;5.07;;
32523;SDS011;18965;52.242;20.886;2023-04-29T09:21:13;14.60;;;4.85;;
32523;SDS011;18965;52.242;20.886;2023-04-29T09:23:41;16.15;;;5.00;;
32523;SDS011;18965;52.242;20.886;2023-04-29T09:26:07;16.58;;;4.63;;
32523;SDS011;18965;52.242;20.886;2023-04-29T09:28:33;13.70;;;4.55;;
32523;SDS011;18965;52.242;20.886;2023-04-29T09:31:00;13.38;;;4.63;;
32523;SDS011;18965;52.242;20.886;2023-04-29T09:33:30;15.65;;;4.65;;
32523;SDS011;18965;52.242;20.886;2023-04-29T09:35:56;18.55;;;4.93;;
32523;SDS011;18965;52.242;20.886;2023-04-29T09:38:22;15.57;;;5.00;;
32523;SDS011;18965;52.242;20.886;2023-04-29T09:40:48;16.15;;;4.53;;
32523;SDS011;18965;52.242;20.886;2023-04-29T09:43:15;24.00;;;6.03;;
32523;SDS011;18965;52.242;20.886;2023-04-29T09:45:46;15.73;;;5.15;;
32523;SDS011;18965;52.242;20.886;2023-04-29T09:48:13;11.10;;;4.03;;
32523;SDS011;18965;52.242;20.886;2023-04-29T09:50:40;12.77;;;4.35;;
32523;SDS011;18965;52.242;20.886;2023-04-29T09:53:08;26.05;;;5.32;;
32523;SDS011;18965;52.242;20.886;2023-04-29T09:55:35;12.45;;;3.97;;
32523;SDS011;18965;52.242;20.886;2023-04-29T09:58:28;21.73;;;5.63;;
32523;SDS011;18965;52.242;20.886;2023-04-29T10:01:01;24.65;;;6.10;;
32523;SDS011;18965;52.242;20.886;2023-04-29T10:03:32;14.38;;;4.28;;
32523;SDS011;18965;52.242;20.886;2023-04-29T10:05:59;16.80;;;5.47;;
32523;SDS011;18965;52.242;20.886;2023-04-29T10:08:27;17.52;;;5.25;;
32523;SDS011;18965;52.242;20.886;2023-04-29T10:11:03;12.55;;;4.20;;
32523;SDS011;18965;52.242;20.886;2023-04-29T10:13:29;12.65;;;4.65;;
32523;SDS011;18965;52.242;20.886;2023-04-29T10:18:39;13.43;;;4.80;;
32523;SDS011;18965;52.242;20.886;2023-04-29T10:21:08;15.23;;;4.75;;
32523;SDS011;18965;52.242;20.886;2023-04-29T10:23:36;19.02;;;4.60;;
32523;SDS011;18965;52.242;20.886;2023-04-29T10:26:02;17.38;;;4.68;;
32523;SDS011;18965;52.242;20.886;2023-04-29T10:28:30;12.63;;;4.68;;
32523;SDS011;18965;52.242;20.886;2023-04-29T10:30:57;24.02;;;6.00;;
32523;SDS011;18965;52.242;20.886;2023-04-29T10:33:31;18.33;;;4.88;;
32523;SDS011;18965;52.242;20.886;2023-04-29T10:35:58;13.25;;;4.32;;
32523;SDS011;18965;52.242;20.886;2023-04-29T10:38:26;19.67;;;4.95;;
32523;SDS011;18965;52.242;20.886;2023-04-29T10:40:58;13.30;;;4.75;;
32523;SDS011;18965;52.242;20.886;2023-04-29T10:43:30;23.08;;;5.45;;
32523;SDS011;18965;52.242;20.886;2023-04-29T10:48:42;19.25;;;5.38;;
32523;SDS011;18965;52.242;20.886;2023-04-29T10:51:08;16.05;;;4.80;;
32523;SDS011;18965;52.242;20.886;2023-04-29T10:53:34;16.73;;;4.93;;
32523;SDS011;18965;52.242;20.886;2023-04-29T10:56:04;15.32;;;5.10;;
32523;SDS011;18965;52.242;20.886;2023-04-29T10:58:36;7.97;;;3.50;;
32523;SDS011;18965;52.242;20.886;2023-04-29T11:01:04;12.32;;;4.10;;
32523;SDS011;18965;52.242;20.886;2023-04-29T11:03:44;10.73;;;4.25;;
32523;SDS011;18965;52.242;20.886;2023-04-29T11:06:45;12.40;;;4.60;;
32523;SDS011;18965;52.242;20.886;2023-04-29T11:12:02;14.10;;;5.00;;
32523;SDS011;18965;52.242;20.886;2023-04-29T11:14:36;14.07;;;4.30;;
32523;SDS011;18965;52.242;20.886;2023-04-29T11:17:09;21.20;;;5.78;;
32523;SDS011;18965;52.242;20.886;2023-04-29T11:19:43;10.15;;;4.30;;
32523;SDS011;18965;52.242;20.886;2023-04-29T11:24:51;15.00;;;5.07;;
32523;SDS011;18965;52.242;20.886;2023-04-29T11:27:18;12.38;;;4.45;;
32523;SDS011;18965;52.242;20.886;2023-04-29T11:29:46;12.70;;;4.30;;
32523;SDS011;18965;52.242;20.886;2023-04-29T11:32:13;16.67;;;5.22;;
32523;SDS011;18965;52.242;20.886;2023-04-29T11:34:39;16.05;;;4.47;;
32523;SDS011;18965;52.242;20.886;2023-04-29T11:37:05;12.50;;;4.30;;
32523;SDS011;18965;52.242;20.886;2023-04-29T11:39:34;11.77;;;4.35;;
32523;SDS011;18965;52.242;20.886;2023-04-29T11:42:06;15.93;;;4.90;;
32523;SDS011;18965;52.242;20.886;2023-04-29T11:44:32;15.98;;;5.00;;
32523;SDS011;18965;52.242;20.886;2023-04-29T11:47:06;15.00;;;4.60;;
32523;SDS011;18965;52.242;20.886;2023-04-29T11:49:32;11.18;;;4.43;;
32523;SDS011;18965;52.242;20.886;2023-04-29T11:51:59;12.90;;;4.57;;
32523;SDS011;18965;52.242;20.886;2023-04-29T11:54:25;13.13;;;4.50;;
32523;SDS011;18965;52.242;20.886;2023-04-29T11:56:52;12.75;;;5.03;;
32523;SDS011;18965;52.242;20.886;2023-04-29T11:59:19;14.35;;;5.38;;
32523;SDS011;18965;52.242;20.886;2023-04-29T12:01:46;15.48;;;4.85;;
32523;SDS011;18965;52.242;20.886;2023-04-29T12:04:15;10.02;;;4.38;;
32523;SDS011;18965;52.242;20.886;2023-04-29T12:06:42;22.67;;;5.78;;
32523;SDS011;18965;52.242;20.886;2023-04-29T12:09:08;11.73;;;4.38;;
32523;SDS011;18965;52.242;20.886;2023-04-29T12:11:34;11.25;;;4.53;;
32523;SDS011;18965;52.242;20.886;2023-04-29T12:14:01;29.08;;;7.40;;
32523;SDS011;18965;52.242;20.886;2023-04-29T12:16:30;24.00;;;6.55;;
32523;SDS011;18965;52.242;20.886;2023-04-29T12:18:57;12.55;;;4.55;;
32523;SDS011;18965;52.242;20.886;2023-04-29T12:21:23;13.95;;;4.80;;
32523;SDS011;18965;52.242;20.886;2023-04-29T12:23:50;21.77;;;6.55;;
32523;SDS011;18965;52.242;20.886;2023-04-29T12:26:17;16.27;;;4.93;;
32523;SDS011;18965;52.242;20.886;2023-04-29T12:28:45;15.15;;;4.57;;
32523;SDS011;18965;52.242;20.886;2023-04-29T12:31:14;32.97;;;8.32;;
32523;SDS011;18965;52.242;20.886;2023-04-29T12:33:43;9.75;;;4.22;;
32523;SDS011;18965;52.242;20.886;2023-04-29T12:36:16;18.52;;;5.82;;
32523;SDS011;18965;52.242;20.886;2023-04-29T12:38:43;15.43;;;5.22;;
32523;SDS011;18965;52.242;20.886;2023-04-29T12:41:09;12.45;;;4.55;;
32523;SDS011;18965;52.242;20.886;2023-04-29T12:43:38;14.23;;;4.73;;
32523;SDS011;18965;52.242;20.886;2023-04-29T12:46:06;13.93;;;4.30;;
32523;SDS011;18965;52.242;20.886;2023-04-29T12:48:33;10.52;;;4.32;;
32523;SDS011;18965;52.242;20.886;2023-04-29T12:51:07;11.45;;;4.35;;
32523;SDS011;18965;52.242;20.886;2023-04-29T12:53:33;13.85;;;4.90;;
32523;SDS011;18965;52.242;20.886;2023-04-29T12:56:00;19.33;;;5.55;;
32523;SDS011;18965;52.242;20.886;2023-04-29T12:58:28;16.63;;;4.82;;
32523;SDS011;18965;52.242;20.886;2023-04-29T13:00:55;12.20;;;5.18;;
32523;SDS011;18965;52.242;20.886;2023-04-29T13:03:21;18.15;;;6.00;;
32523;SDS011;18965;52.242;20.886;2023-04-29T13:05:47;14.15;;;4.72;;
32523;SDS011;18965;52.242;20.886;2023-04-29T13:08:16;13.95;;;4.28;;
32523;SDS011;18965;52.242;20.886;2023-04-29T13:10:43;17.40;;;5.22;;
32523;SDS011;18965;52.242;20.886;2023-04-29T13:13:09;15.77;;;5.28;;
32523;SDS011;18965;52.242;20.886;2023-04-29T13:15:35;17.23;;;6.07;;
32523;SDS011;18965;52.242;20.886;2023-04-29T13:18:03;13.13;;;4.82;;
32523;SDS011;18965;52.242;20.886;2023-04-29T13:20:29;11.43;;;4.40;;
32523;SDS011;18965;52.242;20.886;2023-04-29T13:22:55;10.85;;;4.15;;
32523;SDS011;18965;52.242;20.886;2023-04-29T13:25:20;14.57;;;5.30;;
32523;SDS011;18965;52.242;20.886;2023-04-29T13:27:46;11.85;;;4.72;;
32523;SDS011;18965;52.242;20.886;2023-04-29T13:30:12;20.63;;;6.13;;
32523;SDS011;18965;52.242;20.886;2023-04-29T13:32:37;9.77;;;4.55;;
32523;SDS011;18965;52.242;20.886;2023-04-29T13:35:05;13.13;;;4.90;;
32523;SDS011;18965;52.242;20.886;2023-04-29T13:37:32;12.40;;;5.15;;
32523;SDS011;18965;52.242;20.886;2023-04-29T13:39:58;21.83;;;6.45;;
32523;SDS011;18965;52.242;20.886;2023-04-29T13:42:23;16.67;;;5.85;;
32523;SDS011;18965;52.242;20.886;2023-04-29T13:44:49;15.15;;;5.55;;
32523;SDS011;18965;52.242;20.886;2023-04-29T13:47:15;11.93;;;5.05;;
32523;SDS011;18965;52.242;20.886;2023-04-29T13:49:41;8.23;;;4.00;;
32523;SDS011;18965;52.242;20.886;2023-04-29T13:52:11;9.60;;;4.57;;
32523;SDS011;18965;52.242;20.886;2023-04-29T13:54:37;10.65;;;4.97;;
32523;SDS011;18965;52.242;20.886;2023-04-29T13:57:03;11.40;;;4.40;;
32523;SDS011;18965;52.242;20.886;2023-04-29T13:59:32;9.45;;;4.30;;
32523;SDS011;18965;52.242;20.886;2023-04-29T14:01:59;9.05;;;4.30;;
32523;SDS011;18965;52.242;20.886;2023-04-29T14:04:25;9.30;;;4.35;;
32523;SDS011;18965;52.242;20.886;2023-04-29T14:06:52;8.52;;;4.50;;
32523;SDS011;18965;52.242;20.886;2023-04-29T14:09:19;9.38;;;4.28;;
32523;SDS011;18965;52.242;20.886;2023-04-29T14:11:46;11.13;;;4.05;;
32523;SDS011;18965;52.242;20.886;2023-04-29T14:14:13;8.90;;;4.10;;
32523;SDS011;18965;52.242;20.886;2023-04-29T14:16:39;12.15;;;5.28;;
32523;SDS011;18965;52.242;20.886;2023-04-29T14:19:05;9.93;;;4.55;;
32523;SDS011;18965;52.242;20.886;2023-04-29T14:21:31;13.38;;;5.30;;
32523;SDS011;18965;52.242;20.886;2023-04-29T14:24:01;11.75;;;4.97;;
32523;SDS011;18965;52.242;20.886;2023-04-29T14:28:53;9.48;;;4.38;;
32523;SDS011;18965;52.242;20.886;2023-04-29T14:31:26;15.10;;;4.90;;
32523;SDS011;18965;52.242;20.886;2023-04-29T14:33:59;11.15;;;4.88;;
32523;SDS011;18965;52.242;20.886;2023-04-29T14:36:25;10.38;;;4.78;;
32523;SDS011;18965;52.242;20.886;2023-04-29T14:38:52;10.45;;;5.03;;
32523;SDS011;18965;52.242;20.886;2023-04-29T14:41:18;11.48;;;5.00;;
32523;SDS011;18965;52.242;20.886;2023-04-29T14:43:45;10.95;;;4.15;;
32523;SDS011;18965;52.242;20.886;2023-04-29T14:46:11;11.45;;;4.60;;
32523;SDS011;18965;52.242;20.886;2023-04-29T14:48:37;10.48;;;4.53;;